METARS
Date METAR Location Area
27/01/2015 LG1B 271030Z 02302KT 09/07 Q1012 Arsakeio Athens
27/01/2015 LGY7 271130Z 11303KT 13/09 Q1010 Aegina Attica
27/01/2015 LGH5 271130Z 06802KT 12/08 Q1010 Ampelokipoi Attica
27/01/2015 LGS5 271130Z 11302KT -RA 10/08 Q1004 Anavissos Attica
27/01/2015 LGO0 271130Z 06802KT 11/08 Q1011 Ano Liosia Attica
27/01/2015 LG9B 271130Z 11301KT 13/08 Q1011 Aspropirgos Attica
27/01/2015 LGB9 271130Z 20303KT 12/07 Q1012 Athens - Gazi Attica
27/01/2015 LGL5 271130Z 13506KT 09/07 Q1010 Ekali Attica
27/01/2015 LGS3 271130Z 09003KT -RA 13/08 Q1011 Faliro Attica
27/01/2015 LGM3 271130Z 15811KT -RA 12/08 Q1012 Hydra Attica
27/01/2015 LGO2 271030Z 15804KT 04/04 Q1012 Imittos Attica
27/01/2015 LGT8 271130Z 02300KT 08/06 Q1012 Ippokratios Attica
27/01/2015 LG99 271130Z 15800KT 10/08 Q1012 Kantza Attica
26/01/2015 LG13 262100Z 00000KT 07/06 Q1018 Kifissia Attica
16/01/2015 LGD6 161230Z 02310KT 14/06 Q1022 Lavrio Attica
27/01/2015 LGK0 271130Z 13503KT 10/08 Q1011 Marousi Attica
27/01/2015 LG00 271210Z 00000KT 09/06 Q1008 Marousi (Anavrita) Attica
27/01/2015 LGR0 271030Z 06801KT 13/08 Q1012 Nea Smirni Attica
27/01/2015 LGM8 271130Z 15801KT 12/07 Q1012 Neos Kosmos Attica
27/01/2015 LGK3 271130Z 18004KT 02/02 Q1011 Parnitha 1230 EAA Attica
27/01/2015 LGT6 271130Z 33800KT 12/09 Q1012 Patissia Attica
27/01/2015 LG67 271200Z 1802592G8694KT 95/71 Q10109 Penteli Attica
27/01/2015 LGX9 271130Z 13501KT 08/07 Q1009 Penteli Attica
27/01/2015 LGU0 271130Z 22505KT 12/06 Q1011 Peristeri Attica
27/01/2015 LGY6 271130Z 15803KT -RA 11/09 Q1011 Porto Rafti Attica
27/01/2015 LG96 271130Z 09002KT 11/09 Q1011 Psychico Attica
27/01/2015 LGZ0 271030Z 15806KT 11/08 Q1011 Rafina Attica
27/01/2015 LG2B 271130Z 13508KT 12/08 Q1011 SEF Attica
27/01/2015 LGG2 271130Z 15803KT 10/08 Q1010 Spata Attica
27/01/2015 LGS6 270730Z 27006KT 12/08 Q1012 Spetses Attica
27/01/2015 LG3B 271130Z 15801KT 10/08 Q1012 Tatoi Attica
27/01/2015 LGZ2 271130Z 13505KT 11/08 Q1011 Vari Attica
27/01/2015 LGR6 270730Z 11302KT -RA 05/04 Q1014 Vilia Attica
27/01/2015 LG74 270700Z 00000G31104KT 101/75 Q10129 Ymittos Attica
27/01/2015 LGG1 271200Z 00000G864KT 98/73 Q116 Kalivia Thorikou Attica E
27/01/2015 LG45 271130Z 15805KT -RA 11/08 Q1013 Markopoulo Attica E
27/01/2015 LG72 270000Z 00000G31104KT 85/66 Q10138 Keratea Attica SE
23/01/2015 LGW4 231930Z 33803KT 08/06 Q1005 Ag. Ioannis Sfakion Crete
27/01/2015 LGJ9 271130Z 18014KT 16/04 Q1011 Aghios Nikolaos Crete
27/01/2015 LGT4 271130Z 24806KT 14/04 Q1011 Alikianos Crete
27/01/2015 LGB6 271130Z 29310KT 07/03 Q1009 Anogeia Crete
27/01/2015 LGZ6 271130Z 15809KT 08/03 Q1013 Askyfou Crete
27/01/2015 LG25 271130Z 22504KT 13/05 Q1010 Chania Crete
27/01/2015 LGN3 271130Z 27004KT 16/05 Q1012 Chania Center Crete
27/01/2015 LG61 271130Z 15805KT 14/08 Q1011 Cost - Irakleio Crete
27/01/2015 LG2C 271130Z 22503KT 10/04 Q1012 Elos Crete
27/01/2015 LGL9 271130Z 22504KT 15/06 Q1010 Falasarna Crete
27/01/2015 LG9A 271130Z 24820KT 12/05 Q1010 Finokalia - Lasithi Crete
27/01/2015 LGL1 271130Z 29305G17KT -RA 06/04 Q1012 Fourfouras Crete
27/01/2015 LGD4 271130Z 00003KT -RA 09/06 Q1012 Fragmapotamon - Rethymno Crete
27/01/2015 LG30 271130Z 20308KT 14/07 Q1011 Heraklion - Knossos Crete
27/01/2015 LG95 271130Z 20311KT 16/07 Q1012 Ierapetra Crete
27/01/2015 LGP0 271130Z 27010G23KT 15/07 Q1012 Lentas Hrakleion Crete
27/01/2015 LGD7 271130Z 20307KT 12/07 Q1012 Metaxochori - Heraklion Crete
27/01/2015 LGI2 271130Z 24808KT 12/08 Q1012 Mires Crete
27/01/2015 LG36 271130Z 33801KT 15/06 Q1011 Paleochora Crete
27/01/2015 LG8A 271130Z 24816KT 13/06 Q1011 Pirathi Heraklion Crete
27/01/2015 LG58 271130Z 20305KT 12/05 Q1010 Rethymno Crete
27/01/2015 LGT2 271130Z 02301KT -RA 11/07 Q1011 Rethymno - Plakia Crete
27/01/2015 LGY1 271130Z 09003KT 11/03 Q1013 Samaria Crete
27/01/2015 LGB4 271130Z 22501KT 02/00 Q1012 Samaria Crete
27/01/2015 LGM2 271130Z 22510KT 17/06 Q1011 Sitia Crete
27/01/2015 LG75 271130Z 13503KT -RA 07/05 Q1014 Spili - Rethymnon Crete
27/01/2015 LG8B 271130Z 15808KT 12/04 Q1011 Stavrakia - Heraclion Crete
27/01/2015 LG50 271130Z 18003KT 09/05 Q1011 Tzermiado Lasithi Crete
27/01/2015 LG7B 271130Z 24813G28KT 11/06 Q1013 Vagionia - Heraklion Crete
27/01/2015 LG70 271130Z 15803KT 15/04 Q1010 Vrysses Crete
27/01/2015 LGT5 271130Z 20307G24KT 13/10 Q1011 Amorgos Cyclades
27/01/2015 LGN6 271130Z 20309KT -RA 10/08 Q1012 Andros Cyclades
27/01/2015 LGS7 270630Z 00000KT 13/10 Q1014 Donoussa Cyclades
27/01/2015 LGI0 271130Z 31506KT -RA 11/08 Q1012 Ios Cyclades
27/01/2015 LGP2 271130Z 24803KT -RA 08/04 Q1013 Ioulida - Kea Cyclades
27/01/2015 LGP5 271130Z 00000KT 11/09 Q1011 Iraklia Cyclades
27/01/2015 LGE3 271130Z 31501KT 09/07 Q1012 Kea Cyclades
27/01/2015 LGX8 271130Z 29304KT RA 10/08 Q1011 Koufonissia Cyclades
27/01/2015 LGS0 271130Z 24800KT RA 11/08 Q1013 Milos Cyclades
27/01/2015 LG66 271130Z 00000KT 00/00 Q 0 Mykonos Cyclades
27/01/2015 LGM0 271130Z 00004KT -RA 10/08 Q1012 Naxos Cyclades
27/01/2015 LGV3 271130Z 22504KT 06/04 Q1010 Naxos - Apiranthos Cyclades
27/01/2015 LGT0 271130Z 27011G23KT RA 09/06 Q1012 Naxos - Apollonas Cyclades
27/01/2015 LGU1 271130Z 04503KT RA 07/06 Q1012 Naxos - Damarionas Cyclades
27/01/2015 LGU2 271130Z 20301KT RA 05/05 Q1011 Naxos - Koronos Cyclades
27/01/2015 LGN7 271130Z 31500KT RA 07/06 Q1011 Naxos - Kynidaros Cyclades
27/01/2015 LGW1 271130Z 09001KT RA 08/07 Q1012 Naxos - Melanes Cyclades
27/01/2015 LGO7 271130Z 04505KT -RA 09/09 Q1012 Naxos - Mikri Vigla Cyclades
27/01/2015 LG02 271130Z 33804KT 10/08 Q1012 Paros Cyclades
27/01/2015 LGX5 271130Z 04506G19KT -RA 10/08 Q1010 Santorini Cyclades
27/01/2015 LGX7 271130Z 31503KT -RA 10/08 Q1011 Schinoussa Cyclades
27/01/2015 LG07 270600Z 00000KT 141/M04 Q10111 Tinos Cyclades
27/01/2015 LGB8 271130Z 27005KT -RA 10/07 Q1013 Tinos NOA Cyclades
27/01/2015 LGAB 271130Z 22511G27KT RA 09/06 Q1011 Emponas - Rhodes Dodecanese
27/01/2015 LGG6 271130Z 09003KT -RA 14/11 Q1012 Kalymnos Dodecanese
27/01/2015 LGAC 271030Z 18007KT 14/11 Q1012 Kattavia - Rhodes Dodecanese
26/01/2015 LGAA 260130Z 11303KT 15/08 Q1016 Lindos - Rhodes Dodecanese
27/01/2015 LG65 271130Z 27002KT -RA 11/11 Q1011 Patmos Dodecanese
27/01/2015 LGS9 271130Z 15803KT -RA 13/10 Q1014 Rhodes Dodecanese
27/01/2015 LGM5 271130Z 20308KT 15/09 Q1011 Kasos Dodecanisa
27/01/2015 LGX1 271130Z 15807KT 13/11 Q1011 Kos Dodekanissa
27/01/2015 LG4A 271130Z 22503KT -RA 10/09 Q1011 Chios East Aegean
27/01/2015 LGT1 271130Z 00000KT -RA 11/10 Q1010 Fournoi East Aegean
27/01/2015 LGI9 271130Z 00000KT -RA 08/07 Q1008 Ikaria East Aegean
27/01/2015 LGI5 271130Z 04502KT 12/10 Q1009 Lemnos East Aegean
27/01/2015 LGI6 271130Z 27006KT 13/10 Q1010 Lesvos East Aegean
27/01/2015 LGJ3 271130Z 15803KT 13/10 Q1014 Lesvos - Thermi East Aegean
20/01/2015 LGZ7 201530Z 33807KT 18/07 Q1018 Mantamados East Aegean
26/01/2015 LGY5 260730Z 11313KT 10/08 Q1018 Molyvos East Aegean
27/01/2015 LGF1 271130Z 18000KT -RA 10/09 Q1010 Samos East Aegean
27/01/2015 LGW7 271130Z 18010KT -RA 09/07 Q1004 Akrotirio Paksimada Evia
27/01/2015 LGO3 271130Z 00000KT 10/08 Q1010 Chalkida Evia
27/01/2015 LGR5 271030Z 18011KT -RA 07/05 Q1012 Kavodoro Evia
09/01/2015 LGY0 090700Z 11300KT 09/05 Q1034 Krieza Evia
27/01/2015 LGX0 271130Z 24800KT 10/08 Q1012 Kymi Evia
25/01/2015 LGT7 251000Z 27004KT 09/07 Q1011 Setta Evia
27/01/2015 LG81 271130Z 00000KT 09/07 Q1010 Steni Evia
27/01/2015 LGC4 271130Z 20302KT 11/08 Q1011 Styra Evia
27/01/2015 LGD3 271130Z 09003KT 10/09 Q1012 Zarakes Evia
27/01/2015 LGP6 271130Z 18001KT 08/06 Q1011 Agia Kyriaki Ioanninon Hepirus
26/01/2015 LGO1 260830Z 27000KT 07/03 Q1018 Aridaia Hepirus
23/01/2015 LGD2 231030Z 06803KT 12/09 Q1006 Arta - Kompoti Hepirus
27/01/2015 LG38 271130Z 11300KT 13/08 Q1010 Arta - Vlacherna Hepirus
13/01/2015 LGE4 130630Z 20300KT M02/M10 Q1029 Aspraggeloi Hepirus
27/01/2015 LGI3 270630Z 33803KT -RA 04/04 Q1012 Derviziana Hepirus
27/01/2015 LGP4 271130Z 13504KT 08/04 Q1009 Dodoni Hepirus
02/01/2015 LGL8 021430Z 02304KT 24/07 Q1015 Grammos Hepirus
27/01/2015 LG43 271030Z 18002KT 09/06 Q1011 Igoumenitsa Hepirus
27/01/2015 LG49 271130Z 15804KT 10/06 Q1009 Ioannina Anatoli Hepirus
27/01/2015 LGK1 271130Z 09004KT 11/06 Q1009 Kanali, Preveza Hepirus
27/01/2015 LGE0 271130Z 24801KT 05/04 Q1011 Katarraktis - Arta Hepirus
27/01/2015 LGO5 271130Z 20304KT 06/03 Q1009 Kerasovo Konitsa Hepirus
27/01/2015 LG3A 271030Z 20303KT 07/06 Q1012 Konitsa Hepirus
27/01/2015 LGO8 271130Z 20302KT 03/01 Q1009 Metsovo Hepirus
27/01/2015 LGK6 271130Z 11301KT 05/04 Q1011 Papigo Hepirus
27/01/2015 LGF6 270930Z 06803KT 05/04 Q1011 Paramythia Hepirus
27/01/2015 LGK9 271130Z 27001KT 11/08 Q1013 Parga Hepirus
27/01/2015 LGK7 270930Z 29301KT 05/04 Q1012 Pesta Hepirus
27/01/2015 LGY9 271030Z 18000KT 02/01 Q1017 Plikati Ioanninon Hepirus
27/01/2015 LGP1 271130Z 22501KT 06/05 Q1011 Pramanta Hepirus
16/01/2015 LGK2 160730Z 18000KT 03/M04 Q1025 Theodoriana, Arta Hepirus
27/01/2015 LGD0 271130Z 29301KT 06/03 Q1009 Tristeno - Ioannina Hepirus
27/01/2015 LGM4 271130Z 18003KT 10/06 Q1009 Tyria Hepirus
27/01/2015 LGR8 271130Z 18002KT 08/05 Q1011 Vourgareli Artas Hepirus
26/01/2015 LGN9 260630Z 00000KT -SN 01/00 Q1018 Vovoussa Hepirus
27/01/2015 LGN0 271130Z 15800KT 08/06 Q1010 Zitsa Hepirus
27/01/2015 LGJ2 271130Z 15803KT -RA 09/08 Q1009 Corfu - Gouvia Ionio
27/01/2015 LGB0 271130Z 13503KT 11/09 Q1010 Ithaki Ionio
27/01/2015 LGI7 271130Z 15810KT 13/08 Q1011 Lefkada Ionio
27/01/2015 LGN1 271130Z 24800KT -RA 09/08 Q1009 Paxoi Ionio
27/01/2015 LGN4 271130Z 18002KT 13/09 Q1009 Zakynthos Ionio
27/01/2015 LGG9 271130Z 33802KT 03/02 Q1011 Amynteo Macedonia
27/01/2015 LG33 271130Z 18003KT 07/06 Q1010 Chalkidiki - Polygyros Macedonia
28/12/2014 LGJ1 280430Z 00000KT 09/08 Q1024 Chalkidiki - Stratoni Macedonia
27/01/2015 LGZ5 271130Z 31505KT 07/06 Q1013 Didymoteicho Macedonia
27/01/2015 LG55 271130Z 04501KT 10/07 Q1010 Dion Macedonia
27/01/2015 LGU8 271130Z 09003KT 10/08 Q1011 Doxato - Drama Macedonia
27/01/2015 LGH3 271150Z 19000KT 10/07 Q1011 Drama Macedonia
27/01/2015 LGH6 271130Z 24802KT 10/07 Q1011 Drama 2 Macedonia
27/01/2015 LGY3 271130Z 11302KT 09/07 Q1012 Eleutheroupoli Macedonia
27/01/2015 LGJ6 272050Z 15916G27KT 02/02 Q1009 Falakro Macedonia
27/01/2015 LG63 271130Z 00000KT 02/01 Q1015 Florina Macedonia
27/01/2015 LGZ8 271130Z 00000KT 10/07 Q1012 Fotolivos Macedonia
24/01/2015 LG73 242330Z 31502KT 09/08 Q1005 Giannitsa Macedonia
27/01/2015 LGF2 271130Z 33800KT 05/04 Q1011 Grevena Macedonia
27/01/2015 LGO4 271130Z 31503KT 04/03 Q1013 Hmathia - Rizomata Macedonia
27/01/2015 LG93 271130Z 18003KT M03/M04 Q1013 Kaimaktsalan Macedonia
27/01/2015 LGN8 271150Z 00000KT 00/M01 Q980 Kartakla - Falakro Macedonia
27/01/2015 LGO9 270530Z 22500KT 09/09 Q1014 Kassandreia (Xalkidiki) Macedonia
27/01/2015 LG27 271150Z 07500KT 08/07 Q1012 Kavala - Dexameni Macedonia
27/01/2015 LG42 271030Z 29304KT 06/05 Q1012 Kilkis Macedonia
27/01/2015 LGW8 271130Z 02307KT 07/04 Q1012 Kimisi Macedonia
27/01/2015 LGJ4 271130Z 33801KT 04/02 Q1014 Kozani - Ardassa Macedonia
25/01/2015 LGP3 252030Z 29300KT 00/00 Q1013 Lailias - Serres Macedonia
27/01/2015 LGZ9 271130Z 31502KT 03/03 Q1013 Mavropigi Macedonia
27/01/2015 LG40 271130Z 00000KT 07/05 Q1013 Naousa Macedonia
27/01/2015 LG4B 271130Z 04504KT 10/07 Q1011 Nea Peramos Macedonia
27/01/2015 LGZ4 271130Z 02306KT -RA 11/08 Q1010 Neos Marmaras Macedonia
27/01/2015 LG48 271130Z 33803KT 06/04 Q1008 Nevrokopi Drama Macedonia
27/01/2015 LGS4 271130Z 31502KT 03/02 Q1011 Notio Pedio - Eordea Macedonia
27/01/2015 LGW0 271130Z 13500KT 08/06 Q1012 Paranesti Macedonia
27/01/2015 LG26 271130Z 33802KT 04/02 Q1010 Ptolemaida Macedonia
27/01/2015 LG87 271130Z 20305KT 01/M01 Q1011 Seli Ski Center Macedonia
27/01/2015 LGW6 271130Z 24802KT 08/07 Q1013 Serres Macedonia
27/01/2015 LGD9 271130Z 11300KT 07/06 Q1012 Serres - Kerkini Macedonia
27/01/2015 LG14 270400Z 00000G31104KT 52/49 Q10144 Serres - Proti Macedonia
27/01/2015 LG5B 271130Z 15803KT 08/06 Q1012 Thasos Macedonia
07/01/2015 LGY8 071419Z 31505KT 9999 SCT036 10/00 Q1010 Thassos Macedonia
27/01/2015 LGR9 271130Z 24803KT 08/07 Q1011 Thessaloniki Macedonia
27/01/2015 LGF0 271130Z 04500KT 03/02 Q1012 Variko Macedonia
09/01/2015 LG82 090430Z 27014KT M05/M10 Q1034 Vassilitsa Macedonia
27/01/2015 LGC2 271130Z 00000KT 09/08 Q1009 Vatopedi - Athos Macedonia
20/01/2015 LGE9 200030Z 09000KT 06/06 Q1018 Vegoritida Macedonia
27/01/2015 LGE5 271130Z 13501KT 09/06 Q1011 Veroia Macedonia
27/01/2015 LG98 271030Z 04504KT 01/00 Q1012 Vlasti - Kozani Macedonia
27/01/2015 LGF5 271201Z 04400KT 05/05 Q1011 Vounochori - Kavala Macedonia
26/01/2015 LGU5 261330Z 06805KT -RA 13/11 Q1014 Agioi Theodoroi Peloponissos
27/01/2015 LGU7 271130Z 11300KT 06/04 Q1010 Alagonia - Messinia Peloponissos
24/01/2015 LG52 241430Z 24807G21KT 12/09 Q1002 Amaliada Peloponissos
27/01/2015 LG77 271130Z 27001KT -RA 05/04 Q1011 Andritsaina Peloponissos
27/01/2015 LGU6 271130Z 22501KT 13/10 Q1011 Arfara - Messinia Peloponissos
27/01/2015 LGT3 271130Z 31503KT 12/07 Q1011 Argos Peloponissos
27/01/2015 LGV0 270930Z 31501KT 13/09 Q1009 Derveni Peloponissos
28/12/2014 LGK4 280730Z 15801KT -RA 03/02 Q1021 Elati Peloponissos
27/01/2015 LGC3 270130Z 00000KT 00/00 Q 0 Foloi - Ilia Peloponissos
27/01/2015 LGX6 271130Z 33803KT -RA 09/06 Q1012 Geraki Peloponissos
27/01/2015 LGB7 271130Z 09002KT 12/09 Q1009 Ilia - Vartholomio Peloponissos
27/01/2015 LG85 271130Z 00000KT 13/09 Q1009 Isthmos Peloponissos
27/01/2015 LG6A 271130Z 18003KT 14/07 Q1011 Kalamata Peloponissos
27/01/2015 LGV7 271130Z 31502KT -RA 05/03 Q1011 Kalavryta Peloponissos
27/01/2015 LGZ3 271130Z 20310KT 14/09 Q1010 Kardamyli Peloponissos
27/01/2015 LGJ5 271130Z 09010KT 11/08 Q1010 Katakolo Peloponissos
27/01/2015 LGP7 271130Z 00000KT -RA 05/03 Q1011 Kato Vlassia Peloponissos
27/01/2015 LGB2 272000Z 20301KT 27/23 Q1011 Katoachaia Peloponissos
27/01/2015 LGB5 271130Z 15804KT 10/08 Q1010 Kavomalias Peloponissos
27/01/2015 LGM7 271130Z 24805KT -RA 08/06 Q1012 Kranidi Peloponissos
27/01/2015 LGV1 271130Z 33800KT 12/09 Q1010 Kyparissia Peloponissos
27/01/2015 LGW9 271130Z 24800KT 04/03 Q1010 Lagadia Peloponissos
27/01/2015 LG0A 271130Z 22501KT SN 02/02 Q1012 Lampia - Ilia Peloponissos
27/01/2015 LG92 271130Z 13506KT 11/06 Q1008 Lappa-Larissos-Achaia Peloponissos
07/01/2015 LG91 070630Z 00000KT 21/15 Q1012 Lousika-Olenias-Achaia Peloponissos
27/01/2015 LGV4 271130Z 22504KT RA 05/04 Q1012 Lykochia Peloponissos
27/01/2015 LGG5 271130Z 13504KT 08/06 Q1011 Megalopoli Peloponissos
27/01/2015 LGV2 271130Z 06802KT -RA 09/06 Q1011 Messinia - Kopanaki Peloponissos
27/01/2015 LGF8 271130Z 00003KT 10/08 Q1011 Molaoi Peloponissos
27/01/2015 LG56 271130Z 13506KT 11/08 Q1011 Monemvasia Peloponissos
27/01/2015 LGE1 271130Z 15804KT 11/06 Q1009 Nemea Peloponissos
27/01/2015 LGD5 271130Z 11304KT 11/07 Q1010 Oleni - Ilia Peloponissos
27/01/2015 LGB3 271130Z 06805KT 11/07 Q1010 Olympia Peloponissos
27/01/2015 LGV6 271130Z 13505KT 00/M02 Q1011 Panachaiko Oros Peloponissos
27/01/2015 LGZ1 271130Z 22500KT 10/08 Q1009 Patra Peloponissos
27/01/2015 LG79 270705Z 00000KT 97/71 Q10141 Patra - Agia Peloponissos
27/01/2015 LG71 271200Z 1121728G8694KT 109/74 Q10098 Patra - Drosia Peloponissos
27/01/2015 LG84 271130Z 18005KT 11/07 Q1011 Patra - Port Peloponissos
27/01/2015 LG59 271130Z 11307KT 11/08 Q1009 Pirgos Peloponissos
25/01/2015 LGH8 250730Z 06803KT 11/09 Q1009 Rio Peloponissos
27/01/2015 LGT9 271130Z 04501KT 09/06 Q1009 Romanos - Patra Peloponissos
27/01/2015 LGA0 271130Z 13503G16KT 11/06 Q1008 Sagaiika Peloponissos
27/01/2015 LGF7 271130Z 24802KT -RA 08/06 Q1011 Sparti Peloponissos
27/01/2015 LGS2 271130Z 22501KT 05/03 Q1011 Stemnitsa Peloponissos
27/01/2015 LGR1 271130Z 02301KT 05/03 Q1008 Trikala Korinthias Peloponissos
27/01/2015 LG83 271130Z 11303KT 05/04 Q1011 Tripoli Peloponissos
27/01/2015 LGU9 271130Z 20301KT 06/02 Q1010 Vytina Peloponissos
27/01/2015 LG86 271130Z 04503KT 12/09 Q1010 Zaxaro Peloponissos
27/01/2015 LGN2 271130Z 29304KT 11/08 Q1013 Alonissos Sporades
26/01/2015 LGI1 261730Z 22500KT 12/10 Q1017 Skyros Sporades
27/01/2015 LGH9 271130Z 09003KT 11/07 Q1012 Agrinio Sterea Ellada
27/01/2015 LGC7 271130Z 13507KT 11/07 Q1010 Aitoliko Sterea Ellada
27/01/2015 LG29 271130Z 04501KT 12/07 Q1010 Amfiklia Sterea Ellada
27/01/2015 LGH1 270700Z 00000KT 60/48 Q10141 Amfiklia 2 Sterea Ellada
26/01/2015 LGG8 261230Z 13504KT 12/08 Q1017 Antikira Sterea Ellada
27/01/2015 LG97 271210Z 24002KT 07/04 Q1009 Arachova Sterea Ellada
27/01/2015 LGC5 271130Z 33803KT 07/04 Q1012 Arahova Sterea Ellada
27/01/2015 LGH0 271130Z 33800KT 11/09 Q1009 Avlida Sterea Ellada
27/01/2015 LGR2 271130Z 27003KT -RA 08/06 Q1010 Dam of Mornos Sterea Ellada
31/12/2014 LGR3 310830Z 04509G26KT 01/M06 Q1013 Diakopi of Lidoriki Sterea Ellada
27/01/2015 LGW5 271130Z 00002KT 05/05 Q1011 Domokos Sterea Ellada
14/01/2015 LG21 141323Z 24804KT 29/15 Q1014 Evia - Chalkida Sterea Ellada
27/01/2015 LGY4 271130Z 18003KT 13/09 Q1011 Galaxidi Sterea Ellada
27/01/2015 LGC8 271200Z 090864G5238KT 127/77 Q10092 Gavalou - Aitol/nia Sterea Ellada
27/01/2015 LGJ7 271130Z 02301KT 09/08 Q1012 Kaparelli Sterea Ellada
27/01/2015 LGC9 271130Z 15803KT 08/04 Q1011 Karpenisi Sterea Ellada
27/01/2015 LGP9 271130Z 29300KT 10/08 Q1008 Kleidi Viotias Sterea Ellada
31/12/2014 LGR4 310830Z 27013G29KT M02/M06 Q1018 Koniakos of Lidoriki Sterea Ellada
27/01/2015 LG5A 271130Z 15801KT 10/08 Q1010 Kopaida Sterea Ellada
27/01/2015 LGV9 271130Z 27002KT 12/08 Q1010 Lamia Sterea Ellada
25/01/2015 LGJ8 250130Z 27001KT 07/06 Q1004 Lefkochori Sterea Ellada
27/01/2015 LGI8 271130Z 13501KT 11/08 Q1011 Livadeia Sterea Ellada
27/01/2015 LGE7 271130Z 06801KT 11/08 Q1008 Makrakomi Sterea Ellada
27/01/2015 LGA6 271130Z 06803KT 06/03 Q1009 Mavrolithari - Vardousia Sterea Ellada
27/01/2015 LGK8 271130Z 22502KT 05/03 Q1009 Myriki Sterea Ellada
27/01/2015 LGG4 270830Z 15804KT -RA 03/02 Q1013 Orini Nafpaktia Sterea Ellada
27/01/2015 LGA4 271100Z 00000KT M05/M06 Q1008 Parnassos Sterea Ellada
27/01/2015 LGF9 271130Z 18003KT 00/M02 Q1011 Parnassos1950 Sterea Ellada
27/01/2015 LGL0 271130Z 22500KT 10/07 Q1011 Polydroso Sterea Ellada
07/01/2015 LGR7 071230Z 04508KT 11/09 Q1025 Prasino - Viotia Sterea Ellada
27/01/2015 LG69 271130Z 27001KT 10/09 Q1010 Tanagra Sterea Ellada
27/01/2015 LGO6 271130Z 27003KT 11/10 Q1012 Theologos Sterea Ellada
27/01/2015 LG94 271130Z 00000KT 56/56 Q10113 Hortiatis Thes/niki
27/01/2015 LG15 271213Z 03500KT 11/01 Q1015 Kamara Thes/niki Thes/niki
21/01/2015 LGA5 211430Z 13503KT 14/12 Q1015 Lagadas Thes/niki
24/01/2015 LG11 240730Z 12901KT 10/06 Q1006 West Thes/niki Thes/niki
27/01/2015 LGV5 270930Z 11304KT 05/04 Q1011 Tsamantas Thesprotia
27/01/2015 LGL4 270830Z 02302KT -SN 01/00 Q1014 Gardiki Thessalia
27/01/2015 LGW3 271030Z 33801KT 07/05 Q1011 Kalabaka Thessalia
27/01/2015 LG2A 271130Z 31503KT 09/07 Q1011 Karditsa Thessalia
31/12/2014 LGU3 311610Z 0222592G6966KT 16/M49 Q10199 Larissa Thessalia
27/01/2015 LGL6 271130Z 00000KT 10/07 Q1010 Larissa Thessalia
20/01/2015 LGS8 201230Z 11302KT 15/11 Q1015 Larissa - Agia Thessalia
28/12/2014 LGL7 282300Z 24812KT 16/05 Q1014 Limni Plastira Thessalia
27/01/2015 LG6B 271130Z 27003KT -RA 11/08 Q1009 Moni Paou Thessalia
26/01/2015 LGU4 260700Z 29304KT 04/M07 Q1013 Olympos Thessalia
27/01/2015 LG7A 271200Z 00000G2592KT 109/78 Q10108 Pedio Areos Volou Thessalia
27/01/2015 LGE2 271030Z 20300KT 03/03 Q1010 Pertouli Thessalia
27/01/2015 LGY2 270730Z 15801KT 07/06 Q1013 Portaria - Pelio Thessalia
27/01/2015 LG80 271130Z 00006KT 11/08 Q1012 Skopelos - Sporades Thessalia
27/01/2015 LG24 271130Z 33805KT 12/09 Q1011 Sporades - Skiathos Thessalia
27/01/2015 LG57 271130Z 29301KT 08/07 Q1011 Trikala Thessalia
27/01/2015 LG51 271130Z 27002KT 12/09 Q1010 Volos Thessalia
27/01/2015 LGG3 271130Z 02302KT 06/05 Q1013 Zagora EAA Thessalia
27/01/2015 LGD8 271130Z 04506KT 09/07 Q1012 Alexandroupolis Thraki
27/01/2015 LGM9 271130Z 00004KT 07/06 Q1010 Imeros Thraki
09/01/2015 LG35 091750Z 33604KT 23/15 Q1013 Komotini Thraki
27/01/2015 LGL2 271130Z 31503KT 05/05 Q1013 Metaxades - Evros Thraki
27/01/2015 LG31 271130Z 00003KT 06/05 Q1012 Orestiada Thraki
27/01/2015 LGC1 271130Z 13503KT 13/09 Q1012 Samothraki Thraki
27/01/2015 LGC6 271130Z 02304KT 08/05 Q1011 Xanthi Thraki
www.meteorologia.gr